createdAt,value
2023-03-19T00:00:31.972Z,7.30
2023-03-19T00:03:00.217Z,7.30
2023-03-19T00:05:28.341Z,7.20
2023-03-19T00:07:57.297Z,7.20
2023-03-19T00:10:27.200Z,7.20
2023-03-19T00:12:56.759Z,7.10
2023-03-19T00:15:27.796Z,7.10
2023-03-19T00:17:57.685Z,7.10
2023-03-19T00:20:25.683Z,7.10
2023-03-19T00:22:53.713Z,7.10
2023-03-19T00:25:21.877Z,7.00
2023-03-19T00:27:49.878Z,7.00
2023-03-19T00:30:17.885Z,7.00
2023-03-19T00:32:45.960Z,7.10
2023-03-19T00:35:13.978Z,7.10
2023-03-19T00:37:43.041Z,7.00
2023-03-19T00:40:11.497Z,7.00
2023-03-19T00:42:39.971Z,6.90
2023-03-19T00:45:09.293Z,7.00
2023-03-19T00:47:37.293Z,7.10
2023-03-19T00:50:05.735Z,7.20
2023-03-19T00:52:34.552Z,7.20
2023-03-19T00:55:02.514Z,7.20
2023-03-19T00:57:30.527Z,7.30
2023-03-19T00:59:58.667Z,7.30
2023-03-19T01:02:27.843Z,7.30
2023-03-19T01:04:55.908Z,7.30
2023-03-19T01:07:23.864Z,7.40
2023-03-19T01:09:52.198Z,7.20
2023-03-19T01:12:20.701Z,7.20
2023-03-19T01:14:48.631Z,7.30
2023-03-19T01:17:17.104Z,7.30
2023-03-19T01:19:45.154Z,7.30
2023-03-19T01:22:14.033Z,7.30
2023-03-19T01:24:46.118Z,7.20
2023-03-19T01:27:14.151Z,7.00
2023-03-19T01:29:42.066Z,6.80
2023-03-19T01:32:15.493Z,6.70
2023-03-19T01:35:05.981Z,6.70
2023-03-19T01:37:34.257Z,6.70
2023-03-19T01:40:02.354Z,6.90
2023-03-19T01:42:30.612Z,7.00
2023-03-19T01:45:34.129Z,7.00
2023-03-19T01:48:25.343Z,7.00
2023-03-19T01:51:03.174Z,7.10
2023-03-19T01:53:52.614Z,7.10
2023-03-19T01:56:34.918Z,7.00
2023-03-19T01:59:13.698Z,7.00
2023-03-19T02:02:07.627Z,7.00
2023-03-19T02:04:36.390Z,6.80
2023-03-19T02:07:05.769Z,6.60
2023-03-19T02:09:34.294Z,6.50
2023-03-19T02:12:03.078Z,6.40
2023-03-19T02:14:31.834Z,6.40
2023-03-19T02:17:00.198Z,6.40
2023-03-19T02:19:32.748Z,6.50
2023-03-19T02:22:01.525Z,6.50
2023-03-19T02:24:33.861Z,6.50
2023-03-19T02:27:10.993Z,6.60
2023-03-19T02:29:43.154Z,6.60
2023-03-19T02:32:15.552Z,6.70
2023-03-19T02:34:43.974Z,6.80
2023-03-19T02:37:14.211Z,6.80
2023-03-19T02:39:55.784Z,6.70
2023-03-19T02:42:29.227Z,6.70
2023-03-19T02:44:58.582Z,6.70
2023-03-19T02:47:27.463Z,6.80
2023-03-19T02:49:55.496Z,6.80
2023-03-19T02:52:24.458Z,6.90
2023-03-19T02:54:52.496Z,6.90
2023-03-19T02:57:20.427Z,6.90
2023-03-19T02:59:48.443Z,6.90
2023-03-19T03:02:16.638Z,6.90
2023-03-19T03:04:45.200Z,7.00
2023-03-19T03:07:35.362Z,6.90
2023-03-19T03:10:03.505Z,6.80
2023-03-19T03:12:31.565Z,6.80
2023-03-19T03:14:59.533Z,6.90
2023-03-19T03:17:28.114Z,6.90
2023-03-19T03:19:56.039Z,6.80
2023-03-19T03:22:24.381Z,6.70
2023-03-19T03:24:52.442Z,6.70
2023-03-19T03:27:20.392Z,6.60
2023-03-19T03:29:48.941Z,6.50
2023-03-19T03:32:17.302Z,6.50
2023-03-19T03:34:47.392Z,6.60
2023-03-19T03:37:15.287Z,6.70
2023-03-19T03:39:43.886Z,6.80
2023-03-19T03:42:11.942Z,6.90
2023-03-19T03:44:41.886Z,6.80
2023-03-19T03:47:10.263Z,6.70
2023-03-19T03:49:38.443Z,6.60
2023-03-19T03:52:06.574Z,6.60
2023-03-19T03:54:35.225Z,6.60
2023-03-19T03:57:03.785Z,6.70
2023-03-19T03:59:36.172Z,6.80
2023-03-19T04:02:05.102Z,6.90
2023-03-19T04:04:33.505Z,6.90
2023-03-19T04:07:01.506Z,6.90
2023-03-19T04:09:50.333Z,6.80
2023-03-19T04:12:19.077Z,6.80
2023-03-19T04:14:48.466Z,6.80
2023-03-19T04:17:16.788Z,6.80
2023-03-19T04:19:45.234Z,6.80
2023-03-19T04:22:15.721Z,6.80
2023-03-19T04:24:43.942Z,6.90
2023-03-19T04:27:11.883Z,6.80
2023-03-19T04:29:41.998Z,6.80
2023-03-19T04:32:10.532Z,6.80
2023-03-19T04:34:41.386Z,6.90
2023-03-19T04:37:11.596Z,7.00
2023-03-19T04:39:46.963Z,7.20
2023-03-19T04:42:14.970Z,7.30
2023-03-19T04:44:54.789Z,7.30
2023-03-19T04:47:29.030Z,7.30
2023-03-19T04:50:00.177Z,7.40
2023-03-19T04:52:28.234Z,7.40
2023-03-19T04:54:56.178Z,7.30
2023-03-19T04:57:24.481Z,7.30
2023-03-19T04:59:54.856Z,7.30
2023-03-19T05:02:24.493Z,7.30
2023-03-19T05:04:52.836Z,7.30
2023-03-19T05:07:21.261Z,7.20
2023-03-19T05:09:49.554Z,7.20
2023-03-19T05:12:20.926Z,7.30
2023-03-19T05:14:51.739Z,7.20
2023-03-19T05:17:22.682Z,7.30
2023-03-19T05:20:07.390Z,7.30
2023-03-19T05:22:36.610Z,7.50
2023-03-19T05:25:05.463Z,7.50
2023-03-19T05:27:34.028Z,7.40
2023-03-19T05:30:12.132Z,7.40
2023-03-19T05:32:51.461Z,7.50
2023-03-19T05:35:30.675Z,7.50
2023-03-19T05:37:59.676Z,7.30
2023-03-19T05:40:29.258Z,7.20
2023-03-19T05:42:59.502Z,7.20
2023-03-19T05:45:29.784Z,7.20
2023-03-19T05:48:01.794Z,7.40
2023-03-19T05:50:34.693Z,7.40
2023-03-19T05:53:19.650Z,7.30
2023-03-19T05:56:04.044Z,7.40
2023-03-19T05:58:38.385Z,7.40
2023-03-19T06:01:06.404Z,7.50
2023-03-19T06:03:34.926Z,7.60
2023-03-19T06:06:08.496Z,7.70
2023-03-19T06:08:42.340Z,7.80
2023-03-19T06:11:27.572Z,7.80
2023-03-19T06:14:32.004Z,7.80
2023-03-19T06:17:38.442Z,7.90
2023-03-19T06:20:11.586Z,7.90
2023-03-19T06:22:40.360Z,8.00
2023-03-19T06:25:09.025Z,8.00
2023-03-19T06:27:39.016Z,8.10
2023-03-19T06:30:25.835Z,8.10
2023-03-19T06:32:55.215Z,8.20
2023-03-19T06:35:25.396Z,8.20
2023-03-19T06:37:54.595Z,8.20
2023-03-19T06:40:22.511Z,8.30
2023-03-19T06:42:50.480Z,8.30
2023-03-19T06:45:20.616Z,8.40
2023-03-19T06:47:48.825Z,8.40
2023-03-19T06:50:17.578Z,8.50
2023-03-19T06:52:45.846Z,8.50
2023-03-19T06:55:14.146Z,8.50
2023-03-19T06:57:42.181Z,8.60
2023-03-19T07:00:12.800Z,8.60
2023-03-19T07:02:41.255Z,8.60
2023-03-19T07:05:09.382Z,8.70
2023-03-19T07:07:37.787Z,8.70
2023-03-19T07:10:05.971Z,8.80
2023-03-19T07:12:33.964Z,8.90
2023-03-19T07:15:02.054Z,8.90
2023-03-19T07:17:30.404Z,9.00
2023-03-19T07:19:58.304Z,9.00
2023-03-19T07:22:26.269Z,9.00
2023-03-19T07:24:54.138Z,8.90
2023-03-19T07:27:22.143Z,8.90
2023-03-19T07:29:50.028Z,9.00
2023-03-19T07:32:18.073Z,9.10
2023-03-19T07:34:45.961Z,9.10
2023-03-19T07:37:13.920Z,9.20
2023-03-19T07:39:42.232Z,9.20
2023-03-19T07:42:10.241Z,9.20
2023-03-19T07:44:41.028Z,9.30
2023-03-19T07:47:22.446Z,9.30
2023-03-19T07:49:53.925Z,9.30
2023-03-19T07:52:26.500Z,9.40
2023-03-19T07:54:54.712Z,9.50
2023-03-19T07:57:22.744Z,9.50
2023-03-19T07:59:50.761Z,9.60
2023-03-19T08:02:22.360Z,9.60
2023-03-19T08:04:51.058Z,9.60
2023-03-19T08:07:19.153Z,9.60
2023-03-19T08:09:48.296Z,9.60
2023-03-19T08:12:16.252Z,9.60
2023-03-19T08:14:44.344Z,9.70
2023-03-19T08:17:12.631Z,9.70
2023-03-19T08:19:40.575Z,9.70
2023-03-19T08:22:08.572Z,9.80
2023-03-19T08:24:36.680Z,9.80
2023-03-19T08:27:04.983Z,9.80
2023-03-19T08:29:32.935Z,9.90
2023-03-19T08:32:02.373Z,9.80
2023-03-19T08:34:30.242Z,9.90
2023-03-19T08:36:58.205Z,9.90
2023-03-19T08:39:26.435Z,9.90
2023-03-19T08:41:54.338Z,9.90
2023-03-19T08:44:22.241Z,9.80
2023-03-19T08:46:50.225Z,9.80
2023-03-19T08:49:18.239Z,9.90
2023-03-19T08:51:46.811Z,9.90
2023-03-19T08:54:14.910Z,10.00
2023-03-19T08:56:42.787Z,10.00
2023-03-19T08:59:10.649Z,10.00
2023-03-19T09:01:38.936Z,10.10
2023-03-19T09:04:07.042Z,10.10
2023-03-19T09:06:34.913Z,10.10
2023-03-19T09:09:02.946Z,10.20
2023-03-19T09:11:31.104Z,10.10
2023-03-19T09:13:59.151Z,10.10
2023-03-19T09:16:27.397Z,10.10
2023-03-19T09:18:57.293Z,10.10
2023-03-19T09:21:27.302Z,10.10
2023-03-19T09:23:55.227Z,10.20
2023-03-19T09:26:23.324Z,10.20
2023-03-19T09:28:51.331Z,10.30
2023-03-19T09:31:19.373Z,10.40
2023-03-19T09:33:47.482Z,10.40
2023-03-19T09:36:15.517Z,10.50
2023-03-19T09:38:43.467Z,10.60
2023-03-19T09:41:15.007Z,10.70
2023-03-19T09:43:53.240Z,10.70
2023-03-19T09:46:25.790Z,10.70
2023-03-19T09:48:53.733Z,10.80
2023-03-19T09:51:40.276Z,10.80
2023-03-19T09:54:27.036Z,10.90
2023-03-19T09:56:55.458Z,10.90
2023-03-19T09:59:24.737Z,10.90
2023-03-19T10:01:59.635Z,10.90
2023-03-19T10:04:30.833Z,10.90
2023-03-19T10:07:05.586Z,11.00
2023-03-19T10:09:36.741Z,10.90
2023-03-19T10:12:27.788Z,10.90
2023-03-19T10:14:58.687Z,10.90
2023-03-19T10:17:29.305Z,11.00
2023-03-19T10:20:10.748Z,11.00
2023-03-19T10:22:44.807Z,11.00
2023-03-19T10:25:17.113Z,11.00
2023-03-19T10:27:46.851Z,11.00
2023-03-19T10:30:18.227Z,11.10
2023-03-19T10:32:52.250Z,11.10
2023-03-19T10:35:23.365Z,11.10
2023-03-19T10:37:52.107Z,11.10
2023-03-19T10:40:23.582Z,11.10
2023-03-19T10:42:54.651Z,11.20
2023-03-19T10:45:22.615Z,11.20
2023-03-19T10:47:50.589Z,11.30
2023-03-19T10:50:24.427Z,11.40
2023-03-19T10:52:53.315Z,11.50
2023-03-19T10:55:25.296Z,11.50
2023-03-19T10:57:58.095Z,11.60
2023-03-19T11:00:28.105Z,11.70
2023-03-19T11:02:57.360Z,11.80
2023-03-19T11:05:27.688Z,11.90
2023-03-19T11:07:57.911Z,11.90
2023-03-19T11:10:27.028Z,12.00
2023-03-19T11:13:04.286Z,12.00
2023-03-19T11:15:38.287Z,12.10
2023-03-19T11:18:25.184Z,12.20
2023-03-19T11:21:03.158Z,12.30
2023-03-19T11:23:32.672Z,12.40
2023-03-19T11:26:02.893Z,12.60
2023-03-19T11:28:34.836Z,12.80
2023-03-19T11:31:16.482Z,13.10
2023-03-19T11:34:07.869Z,13.30
2023-03-19T11:36:52.980Z,13.50
2023-03-19T11:39:39.131Z,13.90
2023-03-19T11:42:25.949Z,14.10
2023-03-19T11:45:04.934Z,14.20
2023-03-19T11:47:39.197Z,14.40
2023-03-19T11:50:10.871Z,14.30
2023-03-19T11:52:46.805Z,14.20
2023-03-19T11:55:24.072Z,14.00
2023-03-19T11:57:58.840Z,14.00
2023-03-19T12:00:44.931Z,14.20
2023-03-19T12:03:15.596Z,14.60
2023-03-19T12:06:06.276Z,14.80
2023-03-19T12:08:40.786Z,15.20
2023-03-19T12:11:21.091Z,15.50
2023-03-19T12:13:49.294Z,15.70
2023-03-19T12:16:41.351Z,16.00
2023-03-19T12:19:21.781Z,16.00
2023-03-19T12:21:53.281Z,16.20
2023-03-19T12:24:34.370Z,16.40
2023-03-19T12:27:21.488Z,16.50
2023-03-19T12:29:55.340Z,16.30
2023-03-19T12:32:23.292Z,15.80
2023-03-19T12:35:00.165Z,15.70
2023-03-19T12:37:36.843Z,15.50
2023-03-19T12:40:17.916Z,15.70
2023-03-19T12:42:49.616Z,15.90
2023-03-19T12:45:22.848Z,15.90
2023-03-19T12:47:55.219Z,16.10
2023-03-19T12:50:23.715Z,15.90
2023-03-19T12:52:59.958Z,16.00
2023-03-19T12:56:00.180Z,16.00
2023-03-19T12:58:40.462Z,16.50
2023-03-19T13:01:20.888Z,17.10
2023-03-19T13:07:17.389Z,17.40
2023-03-19T13:09:49.025Z,18.00
2023-03-19T13:12:31.969Z,18.20
2023-03-19T13:15:15.529Z,18.20
2023-03-19T13:17:46.466Z,18.00
2023-03-19T13:20:21.529Z,18.10
2023-03-19T13:22:55.288Z,18.00
2023-03-19T13:25:26.616Z,17.50
2023-03-19T13:27:57.408Z,17.20
2023-03-19T13:30:25.736Z,17.20
2023-03-19T13:33:02.086Z,17.40
2023-03-19T13:35:39.821Z,17.40
2023-03-19T13:38:16.632Z,17.60
2023-03-19T13:40:46.175Z,18.00
2023-03-19T13:43:29.680Z,18.40
2023-03-19T13:46:24.028Z,18.60
2023-03-19T13:48:55.611Z,18.90
2023-03-19T13:51:30.739Z,18.90
2023-03-19T13:54:01.484Z,18.40
2023-03-19T13:56:34.231Z,18.30
2023-03-19T13:59:15.008Z,18.20
2023-03-19T14:01:45.719Z,18.20
2023-03-19T14:04:21.508Z,18.50
2023-03-19T14:06:51.670Z,18.80
2023-03-19T14:09:30.648Z,18.80
2023-03-19T14:12:10.653Z,19.00
2023-03-19T14:14:47.034Z,19.20
2023-03-19T14:17:20.855Z,19.10
2023-03-19T14:19:54.266Z,19.10
2023-03-19T14:22:37.062Z,18.90
2023-03-19T14:25:06.060Z,18.90
2023-03-19T14:27:34.079Z,19.00
2023-03-19T14:30:25.003Z,18.90
2023-03-19T14:32:53.344Z,18.80
2023-03-19T14:35:23.898Z,18.30
2023-03-19T14:37:53.339Z,18.20
2023-03-19T14:40:28.349Z,18.00
2023-03-19T14:43:23.004Z,17.60
2023-03-19T14:46:00.984Z,17.50
2023-03-19T14:49:09.891Z,17.60
2023-03-19T14:52:06.634Z,17.40
2023-03-19T14:54:41.885Z,17.60
2023-03-19T14:57:16.996Z,17.90
2023-03-19T14:59:44.956Z,18.10
2023-03-19T15:02:33.529Z,18.20
2023-03-19T15:05:05.805Z,18.20
2023-03-19T15:07:53.623Z,17.90
2023-03-19T15:10:32.225Z,17.80
2023-03-19T15:13:03.075Z,17.60
2023-03-19T15:15:49.884Z,17.40
2023-03-19T15:18:18.127Z,17.40
2023-03-19T15:20:48.276Z,17.20
2023-03-19T15:23:26.727Z,17.20
2023-03-19T15:26:02.052Z,17.10
2023-03-19T15:28:31.190Z,17.10
2023-03-19T15:31:13.376Z,17.20
2023-03-19T15:33:48.618Z,17.10
2023-03-19T15:36:19.761Z,17.20
2023-03-19T15:38:50.662Z,17.40
2023-03-19T15:41:18.867Z,17.40
2023-03-19T15:43:47.366Z,17.40
2023-03-19T15:46:17.226Z,17.30
2023-03-19T15:48:49.002Z,17.20
2023-03-19T15:51:18.185Z,17.20
2023-03-19T15:53:49.460Z,17.00
2023-03-19T15:56:18.920Z,16.80
2023-03-19T15:58:48.774Z,16.80
2023-03-19T16:01:18.032Z,16.80
2023-03-19T16:03:47.254Z,16.70
2023-03-19T16:06:27.046Z,16.50
2023-03-19T16:08:56.663Z,16.10
2023-03-19T16:11:43.071Z,16.00
2023-03-19T16:14:20.116Z,15.90
2023-03-19T16:16:49.021Z,15.70
2023-03-19T16:19:35.280Z,15.70
2023-03-19T16:22:04.823Z,15.60
2023-03-19T16:24:37.154Z,15.60
2023-03-19T16:27:15.497Z,15.50
2023-03-19T16:29:44.584Z,15.40
2023-03-19T16:32:12.411Z,15.30
2023-03-19T16:34:47.647Z,15.20
2023-03-19T16:37:34.111Z,15.10
2023-03-19T16:40:04.990Z,15.10
2023-03-19T16:42:32.828Z,15.10
2023-03-19T16:45:20.296Z,15.00
2023-03-19T16:47:49.757Z,14.90
2023-03-19T16:50:18.917Z,14.70
2023-03-19T16:52:47.948Z,14.50
2023-03-19T16:55:35.966Z,14.40
2023-03-19T16:58:11.751Z,14.30
2023-03-19T17:00:40.119Z,14.30
2023-03-19T17:03:12.207Z,14.30
2023-03-19T17:05:40.289Z,14.10
2023-03-19T17:08:08.340Z,13.90
2023-03-19T17:10:37.075Z,13.60
2023-03-19T17:13:05.559Z,13.40
2023-03-19T17:15:38.307Z,13.20
2023-03-19T17:18:12.777Z,13.10
2023-03-19T17:20:43.711Z,13.00
2023-03-19T17:23:14.896Z,12.80
2023-03-19T17:25:43.074Z,12.80
2023-03-19T17:28:11.074Z,12.80
2023-03-19T17:30:39.493Z,12.80
2023-03-19T17:33:07.687Z,12.70
2023-03-19T17:35:36.440Z,12.60
2023-03-19T17:38:04.775Z,12.50
2023-03-19T17:40:32.723Z,12.30
2023-03-19T17:43:01.021Z,12.20
2023-03-19T17:45:30.782Z,12.10
2023-03-19T17:48:01.736Z,12.00
2023-03-19T17:50:33.130Z,12.00
2023-03-19T17:53:01.501Z,11.90
2023-03-19T17:55:30.420Z,11.90
2023-03-19T17:57:58.252Z,11.90
2023-03-19T18:00:26.177Z,11.80
2023-03-19T18:02:55.145Z,11.70
2023-03-19T18:05:24.644Z,11.70
2023-03-19T18:07:54.732Z,11.70
2023-03-19T18:10:24.670Z,11.70
2023-03-19T18:13:01.087Z,11.70
2023-03-19T18:15:34.360Z,11.70
2023-03-19T18:18:03.459Z,11.90
2023-03-19T18:20:36.274Z,12.20
2023-03-19T18:23:04.924Z,12.40
2023-03-19T18:25:36.204Z,12.50
2023-03-19T18:28:04.951Z,12.60
2023-03-19T18:30:34.400Z,12.60
2023-03-19T18:33:03.763Z,12.60
2023-03-19T18:35:33.472Z,12.60
2023-03-19T18:38:01.550Z,12.60
2023-03-19T18:40:30.673Z,12.60
2023-03-19T18:42:58.936Z,12.50
2023-03-19T18:45:28.574Z,12.50
2023-03-19T18:47:58.049Z,12.50
2023-03-19T18:50:32.491Z,12.40
2023-03-19T18:53:03.576Z,12.40
2023-03-19T18:55:31.994Z,12.40
2023-03-19T18:58:01.971Z,12.40
2023-03-19T19:00:31.287Z,12.30
2023-03-19T19:02:59.401Z,12.30
2023-03-19T19:05:28.846Z,12.30
2023-03-19T19:07:57.858Z,12.30
2023-03-19T19:10:26.687Z,12.20
2023-03-19T19:12:55.942Z,12.10
2023-03-19T19:15:24.454Z,12.10
2023-03-19T19:17:53.523Z,12.10
2023-03-19T19:20:25.792Z,12.10
2023-03-19T19:22:54.276Z,12.10
2023-03-19T19:25:27.049Z,11.80
2023-03-19T19:28:01.466Z,11.70
2023-03-19T19:30:32.568Z,11.80
2023-03-19T19:33:40.535Z,11.80
2023-03-19T19:36:10.302Z,11.60
2023-03-19T19:38:42.157Z,11.50
2023-03-19T19:41:16.828Z,11.40
2023-03-19T19:43:46.039Z,11.30
2023-03-19T19:46:14.799Z,11.40
2023-03-19T19:48:42.735Z,11.40
2023-03-19T19:51:13.554Z,11.30
2023-03-19T19:53:41.507Z,11.30
2023-03-19T19:56:17.751Z,11.30
2023-03-19T19:58:46.293Z,11.30
2023-03-19T20:01:18.248Z,11.40
2023-03-19T20:03:46.958Z,11.40
2023-03-19T20:06:15.024Z,11.40
2023-03-19T20:08:43.534Z,11.40
2023-03-19T20:11:18.320Z,11.20
2023-03-19T20:13:50.961Z,11.00
2023-03-19T20:16:21.883Z,11.00
2023-03-19T20:18:52.042Z,11.10
2023-03-19T20:21:20.357Z,11.10
2023-03-19T20:23:48.744Z,11.00
2023-03-19T20:26:17.731Z,11.10
2023-03-19T20:28:46.516Z,11.20
2023-03-19T20:31:20.075Z,11.20
2023-03-19T20:33:48.246Z,11.20
2023-03-19T20:36:16.822Z,11.10
2023-03-19T20:38:45.033Z,11.00
2023-03-19T20:41:18.148Z,11.00
2023-03-19T20:43:46.001Z,11.00
2023-03-19T20:46:14.799Z,11.00
2023-03-19T20:48:43.876Z,10.90
2023-03-19T20:51:16.063Z,10.90
2023-03-19T20:53:43.999Z,10.90
2023-03-19T20:56:15.547Z,10.80
2023-03-19T20:58:43.427Z,10.80
2023-03-19T21:01:12.683Z,10.80
2023-03-19T21:03:40.570Z,10.70
2023-03-19T21:06:16.208Z,10.50
2023-03-19T21:08:45.440Z,10.40
2023-03-19T21:11:18.925Z,10.50
2023-03-19T21:13:51.539Z,10.40
2023-03-19T21:16:22.075Z,10.30
2023-03-19T21:18:52.859Z,10.20
2023-03-19T21:21:28.186Z,10.10
2023-03-19T21:24:06.961Z,10.10
2023-03-19T21:26:38.773Z,10.00
2023-03-19T21:29:08.374Z,10.10
2023-03-19T21:31:36.596Z,10.10
2023-03-19T21:34:04.488Z,10.10
2023-03-19T21:36:32.386Z,10.00
2023-03-19T21:39:00.175Z,10.10
2023-03-19T21:41:31.203Z,10.20
2023-03-19T21:44:01.954Z,10.20
2023-03-19T21:46:31.143Z,10.10
2023-03-19T21:48:59.728Z,9.90
2023-03-19T21:51:28.698Z,9.80
2023-03-19T21:53:56.763Z,9.80
2023-03-19T21:56:36.181Z,9.80
2023-03-19T21:59:10.009Z,9.80
2023-03-19T22:01:37.957Z,9.70
2023-03-19T22:04:05.861Z,9.60
2023-03-19T22:06:36.310Z,9.70
2023-03-19T22:09:05.287Z,9.70
2023-03-19T22:11:35.698Z,9.60
2023-03-19T22:14:05.314Z,9.70
2023-03-19T22:16:33.562Z,9.60
2023-03-19T22:19:02.585Z,9.60
2023-03-19T22:21:33.853Z,9.70
2023-03-19T22:24:01.805Z,9.60
2023-03-19T22:26:29.619Z,9.70
2023-03-19T22:28:58.837Z,9.60
2023-03-19T22:31:26.910Z,9.50
2023-03-19T22:33:54.939Z,9.50
2023-03-19T22:36:22.799Z,9.60
2023-03-19T22:38:50.703Z,9.50
2023-03-19T22:41:22.083Z,9.40
2023-03-19T22:43:50.363Z,9.30
2023-03-19T22:46:19.361Z,9.30
2023-03-19T22:48:49.079Z,9.20
2023-03-19T22:51:18.319Z,9.10
2023-03-19T22:53:46.750Z,9.10
2023-03-19T22:56:15.072Z,9.20
2023-03-19T22:58:43.219Z,9.30
2023-03-19T23:01:20.629Z,9.40
2023-03-19T23:03:49.252Z,9.40
2023-03-19T23:06:29.071Z,9.50
2023-03-19T23:09:00.973Z,9.50
2023-03-19T23:11:31.678Z,9.60
2023-03-19T23:14:00.748Z,9.40
2023-03-19T23:16:29.209Z,9.30
2023-03-19T23:18:58.193Z,9.30
2023-03-19T23:21:25.983Z,9.40
2023-03-19T23:23:54.092Z,9.30
2023-03-19T23:26:26.745Z,9.30
2023-03-19T23:28:55.507Z,9.30
2023-03-19T23:31:23.789Z,9.20
2023-03-19T23:33:51.683Z,9.20
2023-03-19T23:36:19.492Z,9.20
2023-03-19T23:38:47.778Z,9.20
2023-03-19T23:41:24.922Z,9.10
2023-03-19T23:43:53.819Z,9.10
2023-03-19T23:46:22.469Z,9.20
2023-03-19T23:48:50.352Z,9.20
2023-03-19T23:51:19.581Z,9.20
2023-03-19T23:53:47.932Z,9.20
2023-03-19T23:56:18.583Z,9.20
2023-03-19T23:58:47.424Z,9.10
